Time;durP1;ratioP1;P1;durP2;ratioP2;P2;SDS_P1;SDS_P2;PMS_P1;PMS_P2;Temp;Humidity;BMP_temperature;BMP_pressure;BME280_temperature;BME280_humidity;BME280_pressure;Samples;Min_cycle;Max_cycle;Signal;HPM_P1;HPM_P2
2023/02/06 00:00:14;;;;;;;12.17;4.80;;;1.90;99.90;;;;;;4840990;29;20038;-89
2023/02/06 00:02:56;;;;;;;14.40;4.47;;;2.00;99.90;;;;;;4838866;29;20030;-89
2023/02/06 00:06:17;;;;;;;16.25;4.43;;;1.90;99.90;;;;;;4840091;29;20034;-89
2023/02/06 00:09:07;;;;;;;12.07;4.00;;;1.90;99.90;;;;;;4843513;29;20050;-89
2023/02/06 00:12:16;;;;;;;12.47;4.97;;;1.90;99.90;;;;;;4843966;29;20034;-89
2023/02/06 00:14:55;;;;;;;14.13;4.33;;;1.90;99.90;;;;;;4800572;29;20126;-89
2023/02/06 00:17:21;;;;;;;17.00;5.30;;;1.90;99.90;;;;;;4837994;29;20074;-89
2023/02/06 00:20:09;;;;;;;11.57;4.40;;;2.00;99.90;;;;;;4840375;29;20033;-89
2023/02/06 00:22:46;;;;;;;13.70;4.47;;;2.00;99.90;;;;;;4841907;29;20050;-89
2023/02/06 00:31:46;;;;;;;14.47;5.27;;;1.80;99.90;;;;;;4844326;29;20034;-88
2023/02/06 00:34:12;;;;;;;17.23;5.37;;;1.90;99.90;;;;;;4848289;29;20042;-88
2023/02/06 00:37:16;;;;;;;16.30;5.70;;;2.00;99.90;;;;;;4849232;29;20034;-89
2023/02/06 00:39:55;;;;;;;13.47;5.03;;;1.80;99.90;;;;;;4846837;29;20049;-89
2023/02/06 00:42:26;;;;;;;18.13;5.37;;;1.80;99.90;;;;;;4849215;29;20034;-88
2023/02/06 00:44:55;;;;;;;15.43;5.23;;;1.80;99.90;;;;;;4841681;29;20042;-89
2023/02/06 00:47:21;;;;;;;16.73;5.80;;;1.80;99.90;;;;;;4847883;29;20058;-88
2023/02/06 00:49:47;;;;;;;18.37;5.17;;;1.80;99.90;;;;;;4848146;29;20030;-89
2023/02/06 00:52:16;;;;;;;18.27;6.30;;;1.80;99.90;;;;;;4848633;29;20053;-88
2023/02/06 00:54:49;;;;;;;16.00;5.40;;;1.90;99.90;;;;;;4852056;29;20018;-88
2023/02/06 00:57:16;;;;;;;18.90;6.57;;;1.80;99.90;;;;;;4850132;29;20501;-89
2023/02/06 00:59:45;;;;;;;22.00;7.03;;;1.80;99.90;;;;;;4845990;29;20038;-89
2023/02/06 01:02:15;;;;;;;22.63;5.67;;;1.80;99.90;;;;;;4847622;29;20026;-89
2023/02/06 01:04:41;;;;;;;16.23;6.43;;;1.80;99.90;;;;;;4844218;29;20500;-89
2023/02/06 01:07:07;;;;;;;18.60;5.80;;;1.70;99.90;;;;;;4849405;29;20118;-88
2023/02/06 01:09:35;;;;;;;21.20;6.30;;;1.70;99.90;;;;;;4849795;29;20018;-89
2023/02/06 01:12:07;;;;;;;20.03;6.77;;;1.70;99.90;;;;;;4851088;29;20026;-88
2023/02/06 01:14:35;;;;;;;15.50;4.80;;;1.80;99.90;;;;;;4845865;29;20026;-89
2023/02/06 01:17:04;;;;;;;18.93;5.57;;;1.80;99.90;;;;;;4850581;29;20491;-88
2023/02/06 01:19:29;;;;;;;19.53;6.10;;;1.80;99.90;;;;;;4853200;29;20018;-88
2023/02/06 01:22:08;;;;;;;16.23;5.77;;;1.80;99.90;;;;;;4851345;29;20078;-88
2023/02/06 01:24:43;;;;;;;18.80;6.40;;;1.80;99.90;;;;;;4845736;29;20076;-88
2023/02/06 01:27:26;;;;;;;19.87;6.10;;;1.80;99.90;;;;;;4847691;29;20029;-89
2023/02/06 01:29:57;;;;;;;14.93;5.63;;;1.80;99.90;;;;;;4850854;29;20086;-88
2023/02/06 01:32:28;;;;;;;20.23;6.07;;;1.80;99.90;;;;;;4849102;29;20058;-88
2023/02/06 01:34:56;;;;;;;19.08;5.22;;;1.80;99.90;;;;;;4847091;29;20026;-89
2023/02/06 01:37:33;;;;;;;19.33;7.27;;;1.70;99.90;;;;;;4841587;29;20377;-89
2023/02/06 01:40:03;;;;;;;19.23;6.27;;;1.80;99.90;;;;;;4847260;29;20030;-88
2023/02/06 01:42:29;;;;;;;19.90;5.37;;;1.80;99.90;;;;;;4847837;29;20495;-89
2023/02/06 01:45:25;;;;;;;17.27;6.43;;;1.80;99.90;;;;;;4848092;29;20041;-88
2023/02/06 01:47:58;;;;;;;16.27;6.03;;;1.80;99.90;;;;;;4845758;29;20053;-89
2023/02/06 01:50:29;;;;;;;23.00;6.77;;;1.80;99.90;;;;;;4848027;29;20037;-88
2023/02/06 01:52:58;;;;;;;15.47;5.57;;;2.00;99.90;;;;;;4846632;29;20059;-88
2023/02/06 01:55:27;;;;;;;20.40;6.23;;;1.80;99.90;;;;;;4848590;29;20066;-89
2023/02/06 01:57:52;;;;;;;18.70;5.50;;;1.80;99.90;;;;;;4847515;29;20018;-89
2023/02/06 02:00:24;;;;;;;17.63;6.00;;;1.90;99.90;;;;;;4847951;29;20030;-89
2023/02/06 02:02:58;;;;;;;19.17;5.78;;;1.90;99.90;;;;;;4849850;29;20623;-88
2023/02/06 02:05:42;;;;;;;15.87;6.40;;;1.90;99.90;;;;;;4852676;29;20049;-88
2023/02/06 02:08:39;;;;;;;18.70;6.10;;;1.90;99.90;;;;;;4848954;29;20025;-88
2023/02/06 02:11:55;;;;;;;18.17;6.53;;;1.80;99.90;;;;;;4838132;29;20045;-89
2023/02/06 02:14:24;;;;;;;22.40;5.87;;;1.80;99.90;;;;;;4851330;29;20050;-88
2023/02/06 02:17:18;;;;;;;20.27;6.70;;;1.90;99.90;;;;;;4849754;29;20030;-88
2023/02/06 02:20:05;;;;;;;23.03;6.77;;;1.80;99.90;;;;;;4841837;29;20086;-88
2023/02/06 02:22:51;;;;;;;24.20;6.37;;;1.80;99.90;;;;;;4848653;29;20234;-88
2023/02/06 02:25:59;;;;;;;18.20;6.57;;;1.80;99.90;;;;;;4845083;29;20037;-88
2023/02/06 02:28:50;;;;;;;19.43;6.23;;;1.80;99.90;;;;;;4837861;29;20038;-88
2023/02/06 02:31:57;;;;;;;18.57;6.40;;;1.70;99.90;;;;;;4851262;29;20050;-88
2023/02/06 02:35:24;;;;;;;20.30;6.13;;;1.80;99.90;;;;;;4845118;29;20038;-89
2023/02/06 02:38:12;;;;;;;26.67;7.10;;;1.90;99.90;;;;;;4843941;29;20042;-89
2023/02/06 02:41:07;;;;;;;18.10;6.60;;;1.70;99.90;;;;;;4859590;29;20034;-89
2023/02/06 02:47:08;;;;;;;18.90;5.73;;;1.70;99.90;;;;;;4858308;29;20054;-88
2023/02/06 02:49:58;;;;;;;20.33;7.73;;;1.70;99.90;;;;;;4851881;29;20034;-89
2023/02/06 02:53:04;;;;;;;22.07;6.20;;;1.80;99.90;;;;;;4848688;29;20046;-88
2023/02/06 02:55:54;;;;;;;23.10;7.27;;;1.80;99.90;;;;;;4852586;29;20032;-88
2023/02/06 02:58:38;;;;;;;23.53;6.83;;;1.70;99.90;;;;;;4848388;29;20040;-88
2023/02/06 03:01:30;;;;;;;21.93;6.50;;;1.70;99.90;;;;;;4852580;29;20040;-88
2023/02/06 03:04:15;;;;;;;18.20;6.78;;;1.70;99.90;;;;;;4853764;29;20120;-88
2023/02/06 03:07:08;;;;;;;18.27;6.27;;;1.60;99.90;;;;;;4861218;29;20081;-88
2023/02/06 03:09:48;;;;;;;;;;;1.70;99.90;;;;;;4863061;29;20030;-89
2023/02/06 03:12:24;;;;;;;19.33;5.57;;;1.70;99.90;;;;;;4853477;29;19972;-88
2023/02/06 03:15:07;;;;;;;18.87;5.83;;;1.70;99.90;;;;;;4847636;29;20113;-89
2023/02/06 03:21:28;;;;;;;24.23;7.50;;;1.70;99.90;;;;;;4851243;29;20085;-88
2023/02/06 03:24:27;;;;;;;21.33;7.37;;;1.70;99.90;;;;;;4844406;29;20087;-89
2023/02/06 03:27:45;;;;;;;25.83;7.60;;;1.70;99.90;;;;;;4848116;29;20041;-89
2023/02/06 03:30:18;;;;;;;18.03;6.33;;;1.70;99.90;;;;;;4811757;29;20063;-88
2023/02/06 03:33:24;;;;;;;21.47;7.00;;;1.70;99.90;;;;;;4813252;29;20038;-87
2023/02/06 03:36:17;;;;;;;19.53;6.63;;;1.70;99.90;;;;;;4839892;29;20113;-88
2023/02/06 03:39:08;;;;;;;23.25;6.82;;;1.80;99.90;;;;;;4840129;29;20034;-89
2023/02/06 03:42:03;;;;;;;18.87;6.70;;;1.60;99.90;;;;;;4838496;29;20033;-88
2023/02/06 03:44:44;;;;;;;20.87;6.50;;;1.70;99.90;;;;;;4845182;29;20377;-89
2023/02/06 03:47:26;;;;;;;19.73;6.57;;;1.80;99.90;;;;;;4841795;29;20038;-88
2023/02/06 03:50:16;;;;;;;24.88;6.93;;;1.70;99.90;;;;;;4843045;29;20093;-88
2023/02/06 03:53:00;;;;;;;23.33;6.87;;;1.70;99.90;;;;;;4846171;29;20040;-89
2023/02/06 03:55:26;;;;;;;21.00;6.47;;;1.90;99.90;;;;;;4843982;29;20353;-90
2023/02/06 03:58:05;;;;;;;24.17;6.97;;;1.60;99.90;;;;;;4845145;29;20061;-89
2023/02/06 04:00:43;;;;;;;20.20;6.17;;;1.70;99.90;;;;;;4847665;29;20128;-88
2023/02/06 04:03:25;;;;;;;21.30;6.40;;;1.80;99.90;;;;;;4844096;29;20026;-88
2023/02/06 04:06:09;;;;;;;23.47;7.30;;;1.60;99.90;;;;;;4851837;29;20018;-88
2023/02/06 04:08:59;;;;;;;22.77;6.57;;;1.60;99.90;;;;;;4846776;29;20022;-89
2023/02/06 04:12:09;;;;;;;22.13;7.17;;;1.60;99.90;;;;;;4848643;29;20414;-88
2023/02/06 04:14:43;;;;;;;20.77;6.83;;;1.60;99.90;;;;;;4844168;29;20117;-89
2023/02/06 04:17:27;;;;;;;;;;;;;;;;;;;;;
2023/02/06 04:19:57;;;;;;;22.60;6.73;;;1.60;99.90;;;;;;4848028;29;20456;-89
2023/02/06 04:22:37;;;;;;;20.67;7.57;;;1.60;99.90;;;;;;4850355;29;20063;-88
2023/02/06 04:28:04;;;;;;;24.53;6.87;;;1.60;99.90;;;;;;4848210;29;20085;-89
2023/02/06 04:30:47;;;;;;;24.13;6.33;;;1.60;99.90;;;;;;4850472;29;20037;-88
2023/02/06 04:33:18;;;;;;;;;;;1.60;99.90;;;;;;4848001;29;20062;-89
2023/02/06 04:35:49;;;;;;;17.33;5.43;;;1.60;99.90;;;;;;4843059;29;19919;-88
2023/02/06 04:38:28;;;;;;;22.13;6.63;;;1.70;99.90;;;;;;4847233;29;20051;-88
2023/02/06 04:41:14;;;;;;;;;;;;;;;;;;;;;
2023/02/06 04:43:48;;;;;;;16.47;6.50;;;1.70;99.90;;;;;;4848687;29;20117;-88
2023/02/06 04:46:39;;;;;;;22.57;6.07;;;1.60;99.90;;;;;;4845513;29;20083;-88
2023/02/06 04:49:39;;;;;;;18.07;6.20;;;1.60;99.90;;;;;;4858756;29;20151;-88
2023/02/06 04:52:11;;;;;;;17.27;6.47;;;1.60;99.90;;;;;;4833042;29;20030;-88
2023/02/06 04:54:39;;;;;;;17.63;5.78;;;1.50;99.90;;;;;;4859234;29;20411;-88
2023/02/06 04:57:19;;;;;;;19.73;6.30;;;1.50;99.90;;;;;;4847969;29;20495;-89
2023/02/06 04:59:47;;;;;;;24.13;7.97;;;1.50;99.90;;;;;;4841649;29;20053;-89
2023/02/06 05:02:38;;;;;;;;;;;;;;;;;;;;;
2023/02/06 05:05:18;;;;;;;17.27;6.93;;;1.40;99.90;;;;;;4849967;29;20093;-88
2023/02/06 05:07:54;;;;;;;19.00;7.27;;;1.50;99.90;;;;;;4848114;29;20052;-88
2023/02/06 05:10:31;;;;;;;20.03;6.83;;;1.50;99.90;;;;;;4846124;29;20054;-88
2023/02/06 05:16:05;;;;;;;24.30;6.30;;;1.50;99.90;;;;;;4850053;29;20029;-88
2023/02/06 05:18:52;;;;;;;20.63;7.33;;;1.40;99.90;;;;;;4858844;29;20569;-89
2023/02/06 05:21:26;;;;;;;21.50;7.40;;;1.60;99.90;;;;;;4845768;29;20057;-89
2023/02/06 05:24:21;;;;;;;18.77;6.93;;;1.40;99.90;;;;;;4867903;29;20046;-88
2023/02/06 05:28:01;;;;;;;;;;;;;;;;;;;;;
2023/02/06 05:35:13;;;;;;;16.83;5.83;;;1.40;99.90;;;;;;4828452;29;20037;-89
2023/02/06 05:38:59;;;;;;;;;;;;;;;;;;;;;
2023/02/06 05:41:34;;;;;;;20.60;5.90;;;1.40;99.90;;;;;;4778940;30;20140;-90
2023/02/06 05:44:28;;;;;;;17.67;7.27;;;1.30;99.90;;;;;;4827737;29;20557;-88
2023/02/06 05:47:31;;;;;;;20.00;5.80;;;1.40;99.90;;;;;;4831711;29;20038;-88
2023/02/06 05:53:54;;;;;;;22.63;6.30;;;1.40;99.90;;;;;;4833123;29;20030;-89
2023/02/06 05:56:37;;;;;;;17.27;6.20;;;1.40;99.90;;;;;;4822729;29;20039;-88
2023/02/06 05:59:12;;;;;;;21.93;5.80;;;1.40;99.90;;;;;;4825034;29;20057;-88
2023/02/06 06:02:38;;;;;;;17.83;5.73;;;1.40;99.90;;;;;;4843296;29;20046;-87
2023/02/06 06:14:54;;;;;;;18.57;6.87;;;1.40;99.90;;;;;;4838743;29;20051;-88
2023/02/06 06:17:23;;;;;;;19.97;6.43;;;1.60;99.90;;;;;;4865364;29;20042;-87
2023/02/06 06:20:49;;;;;;;21.10;7.47;;;1.40;99.90;;;;;;4864179;29;20269;-89
2023/02/06 06:26:57;;;;;;;17.53;6.13;;;1.40;99.90;;;;;;4826267;29;20104;-88
2023/02/06 06:29:53;;;;;;;18.00;5.43;;;1.40;99.90;;;;;;4829391;29;20038;-88
2023/02/06 06:32:50;;;;;;;18.23;6.13;;;1.40;99.90;;;;;;4849108;29;20121;-86
2023/02/06 06:35:37;;;;;;;16.07;6.10;;;1.40;99.90;;;;;;4850425;29;20038;-87
2023/02/06 06:38:48;;;;;;;23.37;6.70;;;1.30;99.90;;;;;;4835538;29;20038;-88
2023/02/06 06:45:45;;;;;;;18.80;6.07;;;1.30;99.90;;;;;;4807646;29;20027;-87
2023/02/06 06:48:45;;;;;;;19.10;6.10;;;1.30;99.90;;;;;;4808879;29;20019;-87
2023/02/06 06:55:14;;;;;;;;;;;;;;;;;;;;;
2023/02/06 06:57:59;;;;;;;22.13;6.77;;;1.30;99.90;;;;;;4853544;29;20125;-88
2023/02/06 07:01:33;;;;;;;;;;;;;;;;;;;;;
2023/02/06 07:04:39;;;;;;;16.20;5.23;;;1.20;99.90;;;;;;4852744;29;20054;-88
2023/02/06 07:10:36;;;;;;;15.13;6.07;;;1.20;99.90;;;;;;4849964;29;20089;-88
2023/02/06 07:22:01;;;;;;;;;;;;;;;;;;;;;
2023/02/06 07:28:02;;;;;;;15.40;5.80;;;1.20;99.90;;;;;;4779828;30;20115;-87
2023/02/06 07:30:32;;;;;;;14.53;5.60;;;1.20;99.90;;;;;;4842274;29;20037;-88
2023/02/06 07:33:02;;;;;;;13.60;5.70;;;1.30;99.90;;;;;;4834857;29;20041;-88
2023/02/06 07:35:48;;;;;;;11.93;5.13;;;1.40;99.90;;;;;;4838115;29;20218;-88
2023/02/06 07:39:19;;;;;;;16.07;6.27;;;1.40;99.90;;;;;;4852333;29;20659;-88
2023/02/06 07:41:51;;;;;;;15.33;5.47;;;1.50;99.90;;;;;;4851006;29;20050;-88
2023/02/06 07:45:25;;;;;;;14.35;5.72;;;1.60;99.90;;;;;;4842526;29;20112;-87
2023/02/06 07:47:55;;;;;;;12.50;5.23;;;1.50;99.90;;;;;;4844263;29;20039;-87
2023/02/06 08:01:50;;;;;;;14.33;4.83;;;1.50;99.90;;;;;;4760578;29;20075;-88
2023/02/06 08:12:54;;;;;;;;;;;;;;;;;;;;;
2023/02/06 08:25:36;;;;;;;12.30;4.63;;;1.40;99.90;;;;;;4826679;29;20034;-88
2023/02/06 08:31:59;;;;;;;;;;;;;;;;;;;;;
2023/02/06 08:35:11;;;;;;;13.73;5.13;;;1.40;99.90;;;;;;4822903;29;20127;-86
2023/02/06 08:41:48;;;;;;;10.23;4.27;;;1.60;99.90;;;;;;4755189;29;20481;-87
2023/02/06 08:44:21;;;;;;;13.43;5.10;;;1.50;99.90;;;;;;4823637;29;20049;-86
2023/02/06 08:46:47;;;;;;;;;;;1.50;99.90;;;;;;4824458;29;20030;-87
2023/02/06 08:52:41;;;;;;;13.67;4.10;;;1.50;99.90;;;;;;4814638;29;20034;-87
2023/02/06 08:55:10;;;;;;;10.17;3.77;;;1.50;99.90;;;;;;4822334;29;20041;-87
2023/02/06 09:01:15;;;;;;;;;;;;;;;;;;;;;
2023/02/06 09:04:05;;;;;;;9.50;3.10;;;1.60;99.90;;;;;;4831729;23;20046;-86
2023/02/06 09:06:53;;;;;;;9.17;3.43;;;1.60;99.90;;;;;;4828904;29;20717;-86
2023/02/06 09:09:37;;;;;;;8.93;3.23;;;1.70;99.90;;;;;;4819178;29;20053;-86
2023/02/06 09:12:15;;;;;;;6.23;2.57;;;1.60;99.90;;;;;;4822041;29;20057;-87
2023/02/06 09:15:04;;;;;;;11.80;3.93;;;1.60;99.90;;;;;;4818669;29;20030;-86
2023/02/06 09:17:44;;;;;;;8.60;3.33;;;1.60;99.90;;;;;;4822168;29;20045;-86
2023/02/06 09:20:25;;;;;;;8.30;2.67;;;1.60;99.90;;;;;;4821773;29;20408;-86
2023/02/06 09:23:18;;;;;;;10.03;3.57;;;1.50;99.90;;;;;;4818645;29;20054;-86
2023/02/06 09:29:15;;;;;;;9.33;3.43;;;1.60;99.90;;;;;;4814947;29;20031;-87
2023/02/06 09:32:03;;;;;;;7.93;2.28;;;1.60;99.90;;;;;;4827291;29;20042;-87
2023/02/06 09:35:10;;;;;;;;;;;;;;;;;;;;;
2023/02/06 09:37:42;;;;;;;5.53;2.70;;;1.60;99.90;;;;;;4825264;29;20029;-86
2023/02/06 09:40:23;;;;;;;7.53;3.50;;;1.60;99.90;;;;;;4832385;29;20047;-87
2023/02/06 09:43:05;;;;;;;7.33;2.87;;;1.70;99.90;;;;;;4837069;29;20030;-87
2023/02/06 09:45:38;;;;;;;8.98;2.97;;;1.60;99.90;;;;;;4819520;29;20031;-87
2023/02/06 09:48:54;;;;;;;6.80;2.27;;;1.70;99.90;;;;;;4804144;29;20129;-86
2023/02/06 09:51:43;;;;;;;11.30;3.00;;;1.60;99.90;;;;;;4812571;29;20039;-87
2023/02/06 09:54:49;;;;;;;6.53;2.23;;;1.60;99.90;;;;;;4770255;29;20035;-87
2023/02/06 09:58:00;;;;;;;9.37;2.50;;;1.60;99.90;;;;;;4816891;29;20122;-87
2023/02/06 10:00:56;;;;;;;7.87;2.50;;;1.60;99.90;;;;;;4817735;29;20038;-86
2023/02/06 10:04:08;;;;;;;;;;;;;;;;;;;;;
2023/02/06 10:07:07;;;;;;;6.15;2.67;;;1.50;99.90;;;;;;4802884;29;20015;-87
2023/02/06 10:10:06;;;;;;;8.67;2.53;;;1.60;99.90;;;;;;4803595;29;20026;-86
2023/02/06 10:12:55;;;;;;;7.10;2.70;;;1.60;99.90;;;;;;4803590;29;20034;-86
2023/02/06 10:15:59;;;;;;;6.20;2.27;;;1.70;99.90;;;;;;4804738;29;20031;-85
2023/02/06 10:18:44;;;;;;;7.93;3.03;;;1.70;99.90;;;;;;4803583;29;20067;-86
2023/02/06 10:21:56;;;;;;;6.83;2.97;;;1.70;99.90;;;;;;4817980;29;20043;-87
2023/02/06 10:31:46;;;;;;;9.60;2.47;;;1.90;99.90;;;;;;4803821;29;20067;-87
2023/02/06 10:35:04;;;;;;;5.17;2.07;;;2.00;99.90;;;;;;4804719;29;20072;-86
2023/02/06 10:38:34;;;;;;;8.60;2.20;;;2.00;99.90;;;;;;4799265;29;20043;-87
2023/02/06 10:41:40;;;;;;;7.20;2.53;;;2.00;99.90;;;;;;4800966;29;20421;-87
2023/02/06 10:44:56;;;;;;;4.80;2.33;;;2.00;99.90;;;;;;4817907;29;20038;-87
2023/02/06 10:48:03;;;;;;;4.60;1.87;;;2.00;99.90;;;;;;4803616;29;20043;-87
2023/02/06 10:50:31;;;;;;;7.40;1.43;;;2.00;99.90;;;;;;4786819;29;20824;-87
2023/02/06 10:54:05;;;;;;;7.10;1.90;;;2.00;99.90;;;;;;4815345;29;20031;-86
2023/02/06 10:56:50;;;;;;;4.37;1.57;;;1.90;99.90;;;;;;4787630;29;20462;-87
2023/02/06 10:59:44;;;;;;;6.20;1.57;;;1.90;99.90;;;;;;4786970;29;20140;-86
2023/02/06 11:02:49;;;;;;;2.83;0.90;;;1.90;99.90;;;;;;4801575;29;20046;-87
2023/02/06 11:05:28;;;;;;;6.33;1.43;;;1.90;99.90;;;;;;4805407;29;20073;-87
2023/02/06 11:08:08;;;;;;;3.17;1.20;;;1.90;99.90;;;;;;4803416;29;20027;-87
2023/02/06 11:10:45;;;;;;;3.27;1.17;;;1.90;99.90;;;;;;4817916;29;20378;-87
2023/02/06 11:13:36;;;;;;;5.97;1.50;;;1.90;99.90;;;;;;4799486;29;20023;-87
2023/02/06 11:16:05;;;;;;;2.90;0.83;;;1.90;99.90;;;;;;4797529;29;20034;-87
2023/02/06 11:18:46;;;;;;;3.97;1.30;;;2.00;99.90;;;;;;4803088;29;20453;-86
2023/02/06 11:21:33;;;;;;;5.80;1.20;;;2.00;99.90;;;;;;4802869;29;20031;-85
2023/02/06 11:24:13;;;;;;;3.63;0.83;;;2.00;99.90;;;;;;4786237;29;20476;-88
2023/02/06 11:26:49;;;;;;;3.73;1.20;;;2.10;99.90;;;;;;4800312;29;20506;-87
2023/02/06 11:29:40;;;;;;;4.27;0.67;;;1.90;99.90;;;;;;4804766;29;20052;-87
2023/02/06 11:32:35;;;;;;;3.25;1.10;;;2.10;99.90;;;;;;4807789;29;20520;-86
2023/02/06 11:35:14;;;;;;;3.07;0.90;;;2.00;99.90;;;;;;4807191;29;20030;-87
2023/02/06 11:37:45;;;;;;;1.97;0.70;;;2.10;99.90;;;;;;4787207;29;20081;-87
2023/02/06 11:40:25;;;;;;;2.05;0.70;;;2.10;99.90;;;;;;4801699;29;20066;-86
2023/02/06 11:43:23;;;;;;;4.57;1.00;;;2.10;99.90;;;;;;4816216;29;20027;-87
2023/02/06 11:46:04;;;;;;;4.53;0.73;;;2.20;99.90;;;;;;4812797;29;20492;-87
2023/02/06 11:48:35;;;;;;;2.30;0.80;;;2.20;99.90;;;;;;4816810;29;20642;-87
2023/02/06 11:51:01;;;;;;;6.70;1.37;;;2.40;99.90;;;;;;4802929;29;20042;-87
2023/02/06 11:53:26;;;;;;;2.13;0.63;;;2.40;99.90;;;;;;4801907;29;20047;-87
2023/02/06 11:56:14;;;;;;;2.33;0.90;;;2.50;99.90;;;;;;4802024;29;20424;-87
2023/02/06 11:58:39;;;;;;;3.57;0.97;;;2.50;99.90;;;;;;4802064;29;20120;-87
2023/02/06 12:01:27;;;;;;;2.63;0.70;;;2.60;99.90;;;;;;4802946;29;20096;-87
2023/02/06 12:04:29;;;;;;;3.67;1.20;;;2.70;99.90;;;;;;4814594;29;20414;-87
2023/02/06 12:07:23;;;;;;;1.92;0.52;;;2.60;99.90;;;;;;4805102;29;20048;-87
2023/02/06 12:10:16;;;;;;;2.37;0.70;;;2.50;99.90;;;;;;4799039;29;20035;-88
2023/02/06 12:13:14;;;;;;;2.97;0.80;;;2.50;99.90;;;;;;4798291;29;20035;-87
2023/02/06 12:19:56;;;;;;;3.00;0.87;;;2.60;99.90;;;;;;4800255;29;20023;-87
2023/02/06 12:22:54;;;;;;;;;;;;;;;;;;;;;
2023/02/06 12:26:18;;;;;;;3.30;1.10;;;2.70;99.90;;;;;;4801971;29;20043;-88
2023/02/06 12:32:51;;;;;;;4.00;1.10;;;2.50;99.90;;;;;;4787370;29;20027;-88
2023/02/06 12:36:02;;;;;;;3.43;0.97;;;2.40;99.90;;;;;;4757200;30;20042;-87
2023/02/06 12:39:38;;;;;;;3.23;1.00;;;2.30;99.90;;;;;;4774263;30;20111;-87
2023/02/06 12:45:52;;;;;;;3.60;1.13;;;2.30;99.90;;;;;;4803852;29;20043;-86
2023/02/06 12:49:06;;;;;;;2.37;0.80;;;2.40;99.90;;;;;;4801332;29;20023;-88
2023/02/06 12:52:03;;;;;;;5.10;1.60;;;2.30;99.90;;;;;;4808174;29;20098;-87
2023/02/06 12:55:23;;;;;;;5.87;2.53;;;2.40;99.90;;;;;;4809674;29;20041;-87
2023/02/06 12:57:50;;;;;;;5.70;1.90;;;2.30;99.90;;;;;;4767016;29;20129;-86
2023/02/06 13:00:56;;;;;;;3.30;1.17;;;2.30;99.90;;;;;;4797784;29;20050;-87
2023/02/06 13:03:47;;;;;;;3.57;1.37;;;2.30;99.90;;;;;;4797968;29;20126;-87
2023/02/06 13:06:19;;;;;;;6.50;1.67;;;2.30;99.90;;;;;;4794114;29;20358;-86
2023/02/06 13:08:57;;;;;;;3.13;0.93;;;2.40;99.90;;;;;;4804777;29;20027;-86
2023/02/06 13:11:34;;;;;;;3.40;1.40;;;2.30;99.90;;;;;;4801069;29;20038;-87
2023/02/06 13:14:17;;;;;;;3.80;1.27;;;2.20;99.90;;;;;;4801138;29;20058;-86
2023/02/06 13:16:50;;;;;;;5.93;1.48;;;2.20;99.90;;;;;;4801849;29;20130;-87
2023/02/06 13:19:46;;;;;;;3.77;1.50;;;2.20;99.90;;;;;;4798410;29;20034;-86
2023/02/06 13:22:18;;;;;;;5.77;1.60;;;2.20;99.90;;;;;;4799235;29;20026;-87
2023/02/06 13:25:13;;;;;;;4.00;1.52;;;2.20;99.90;;;;;;4800305;29;20030;-86
2023/02/06 13:27:57;;;;;;;3.87;1.30;;;2.20;99.90;;;;;;4797960;29;20049;-86
2023/02/06 13:30:50;;;;;;;;;;;;;;;;;;;;;
2023/02/06 13:33:23;;;;;;;4.57;1.60;;;2.00;99.90;;;;;;4853377;24;20044;-86
2023/02/06 13:36:29;;;;;;;4.45;1.20;;;2.00;99.90;;;;;;4838485;29;20037;-87
2023/02/06 13:39:16;;;;;;;3.17;1.23;;;2.10;99.90;;;;;;4835060;29;20042;-87
2023/02/06 13:41:55;;;;;;;4.80;1.00;;;2.10;99.90;;;;;;4827095;29;20133;-87
2023/02/06 13:44:50;;;;;;;3.50;1.33;;;2.00;99.90;;;;;;4838104;29;20519;-88
2023/02/06 13:48:04;;;;;;;5.80;0.93;;;2.10;99.90;;;;;;4841180;29;20030;-88
2023/02/06 13:51:09;;;;;;;4.10;1.03;;;2.10;99.90;;;;;;4837267;29;20120;-87
2023/02/06 14:01:24;;;;;;;;;;;;;;;;;;;;;
2023/02/06 14:07:47;;;;;;;3.00;0.90;;;2.20;99.90;;;;;;4796317;29;20086;-87
2023/02/06 14:14:28;;;;;;;;;;;;;;;;;;;;;
2023/02/06 14:26:56;;;;;;;2.83;0.67;;;2.40;99.90;;;;;;4839926;29;20157;-88
2023/02/06 14:30:06;;;;;;;;;;;;;;;;;;;;;
2023/02/06 14:32:46;;;;;;;3.10;1.20;;;2.20;99.90;;;;;;4829635;29;20046;-87
2023/02/06 14:35:56;;;;;;;2.73;1.17;;;2.30;99.90;;;;;;4855039;29;20052;-87
2023/02/06 14:41:10;;;;;;;1.97;0.80;;;2.30;99.90;;;;;;4873311;23;20058;-89
2023/02/06 14:43:56;;;;;;;1.87;0.73;;;2.30;99.90;;;;;;4836448;29;20429;-89
2023/02/06 14:46:46;;;;;;;5.50;0.87;;;2.30;99.90;;;;;;4828698;29;20031;-88
2023/02/06 14:54:47;;;;;;;3.57;1.13;;;2.20;99.90;;;;;;3034531;27;20050;-88
2023/02/06 14:57:38;;;;;;;3.27;0.83;;;2.20;99.90;;;;;;4853876;29;20038;-87
2023/02/06 15:00:42;;;;;;;6.27;1.07;;;2.30;99.90;;;;;;4849002;29;20033;-88
2023/02/06 15:03:44;;;;;;;4.53;1.23;;;2.20;99.90;;;;;;4842204;29;20041;-88
2023/02/06 15:06:50;;;;;;;;;;;;;;;;;;;;;
2023/02/06 15:16:08;;;;;;;3.07;0.93;;;2.10;99.90;;;;;;4822954;29;20035;-88
2023/02/06 15:18:51;;;;;;;3.80;1.23;;;2.10;99.90;;;;;;4820714;29;20050;-88
2023/02/06 15:22:14;;;;;;;;;;;;;;;;;;;;;
2023/02/06 15:25:26;;;;;;;2.33;0.90;;;2.10;99.90;;;;;;4813105;29;20106;-88
2023/02/06 15:28:25;;;;;;;3.90;0.97;;;2.10;99.90;;;;;;4812842;29;20035;-88
2023/02/06 15:31:25;;;;;;;3.37;1.00;;;2.10;99.90;;;;;;4812394;29;20030;-88
2023/02/06 15:34:08;;;;;;;2.40;0.87;;;2.10;99.90;;;;;;4810402;29;20463;-87
2023/02/06 15:36:47;;;;;;;5.57;1.00;;;2.10;99.90;;;;;;4817082;29;20115;-87
2023/02/06 15:39:22;;;;;;;2.60;1.07;;;2.10;99.90;;;;;;4830035;29;20042;-88
2023/02/06 15:42:03;;;;;;;2.70;0.90;;;2.10;99.90;;;;;;4818270;29;20027;-87
2023/02/06 15:44:47;;;;;;;3.07;0.83;;;2.00;99.90;;;;;;4818920;29;20031;-88
2023/02/06 15:47:18;;;;;;;2.73;0.73;;;2.10;99.90;;;;;;4817454;29;20034;-87
2023/02/06 15:49:47;;;;;;;2.37;0.67;;;2.10;99.90;;;;;;4816261;29;20039;-86
2023/02/06 15:52:48;;;;;;;;;;;;;;;;;;;;;
2023/02/06 15:55:32;;;;;;;6.20;1.17;;;2.00;99.90;;;;;;4817603;29;20122;-87
2023/02/06 15:58:12;;;;;;;3.63;0.90;;;2.00;99.90;;;;;;4830603;29;20042;-88
2023/02/06 16:00:53;;;;;;;3.67;0.73;;;1.90;99.90;;;;;;4819309;29;20054;-88
2023/02/06 16:03:33;;;;;;;2.07;0.83;;;1.90;99.90;;;;;;4815466;29;20046;-88
2023/02/06 16:06:15;;;;;;;1.87;0.73;;;1.90;99.90;;;;;;4815857;29;20749;-88
2023/02/06 16:09:07;;;;;;;0.88;0.40;;;1.90;99.90;;;;;;4818597;29;20034;-88
2023/02/06 16:14:40;;;;;;;1.30;0.60;;;1.90;99.90;;;;;;4825660;29;20057;-89
2023/02/06 16:17:15;;;;;;;3.43;1.03;;;1.90;99.90;;;;;;4815082;29;20034;-88
2023/02/06 16:19:52;;;;;;;2.53;0.93;;;1.90;99.90;;;;;;4820593;29;20054;-88
2023/02/06 16:22:27;;;;;;;2.87;0.90;;;2.00;99.90;;;;;;4818955;29;20356;-86
2023/02/06 16:25:25;;;;;;;3.47;0.97;;;1.80;99.90;;;;;;4805957;29;20497;-87
2023/02/06 16:27:54;;;;;;;1.60;0.63;;;1.90;99.90;;;;;;4810928;29;20113;-87
2023/02/06 16:30:43;;;;;;;2.47;0.93;;;1.80;99.90;;;;;;4810992;29;20034;-86
2023/02/06 16:33:39;;;;;;;3.57;1.00;;;2.00;99.90;;;;;;4799456;29;20100;-87
2023/02/06 16:36:11;;;;;;;2.07;0.90;;;1.80;99.90;;;;;;4799969;29;20043;-86
2023/02/06 16:38:40;;;;;;;1.58;0.50;;;1.80;99.90;;;;;;4805971;29;20061;-88
2023/02/06 16:41:24;;;;;;;1.67;0.57;;;1.80;99.90;;;;;;4805799;29;20561;-87
2023/02/06 16:43:57;;;;;;;4.13;0.80;;;1.80;99.90;;;;;;4793941;29;20027;-87
2023/02/06 16:46:51;;;;;;;2.20;0.67;;;1.80;99.90;;;;;;4803320;29;20126;-87
2023/02/06 16:52:15;;;;;;;2.50;0.60;;;1.80;99.90;;;;;;4866709;29;20057;-86
2023/02/06 16:54:50;;;;;;;1.70;0.47;;;1.80;99.90;;;;;;4870482;29;20018;-87
2023/02/06 17:01:46;;;;;;;2.37;0.80;;;1.80;99.90;;;;;;4806311;29;20113;-88
2023/02/06 17:04:20;;;;;;;3.50;0.90;;;1.80;99.90;;;;;;4794176;29;20130;-88
2023/02/06 17:06:51;;;;;;;4.80;0.70;;;2.00;99.90;;;;;;4853254;29;20054;-88
2023/02/06 17:09:18;;;;;;;4.07;0.77;;;2.00;99.90;;;;;;4840207;24;20051;-88
2023/02/06 17:12:27;;;;;;;3.33;0.50;;;2.00;99.90;;;;;;4828413;29;20056;-89
2023/02/06 17:15:52;;;;;;;;;;;;;;;;;;;;;
2023/02/06 17:21:41;;;;;;;;;;;;;;;;;;;;;
2023/02/06 17:24:35;;;;;;;;;;;;;;;;;;;;;
2023/02/06 17:31:08;;;;;;;3.83;0.80;;;2.10;99.90;;;;;;4805194;29;20039;-88
2023/02/06 17:33:45;;;;;;;1.30;0.50;;;2.20;99.90;;;;;;4804483;29;20041;-86
2023/02/06 17:36:21;;;;;;;2.97;0.70;;;2.10;99.90;;;;;;4787328;29;20062;-87
2023/02/06 17:39:05;;;;;;;2.73;0.67;;;2.10;99.90;;;;;;4793155;29;20047;-88
2023/02/06 17:41:43;;;;;;;3.00;1.10;;;2.10;99.90;;;;;;4792440;29;20038;-87
2023/02/06 17:44:18;;;;;;;2.03;0.70;;;2.00;99.90;;;;;;4811818;29;20055;-88
2023/02/06 17:46:48;;;;;;;2.50;0.70;;;2.10;99.90;;;;;;4787785;29;20035;-87
2023/02/06 17:49:41;;;;;;;7.00;1.10;;;2.10;99.90;;;;;;4821364;29;20111;-87
2023/02/06 17:52:17;;;;;;;3.10;0.50;;;2.00;99.90;;;;;;4824619;29;20042;-87
2023/02/06 17:54:51;;;;;;;5.20;1.27;;;2.10;99.90;;;;;;4829535;29;20095;-87
2023/02/06 17:57:33;;;;;;;;;;;;;;;;;;;;;
2023/02/06 18:00:12;;;;;;;3.93;0.87;;;2.00;99.90;;;;;;4838649;29;20148;-89
2023/02/06 18:02:47;;;;;;;2.43;0.83;;;2.00;99.90;;;;;;4821116;29;20336;-87
2023/02/06 18:05:36;;;;;;;1.90;0.80;;;2.00;99.90;;;;;;4824333;29;20035;-88
2023/02/06 18:09:03;;;;;;;2.77;0.90;;;2.00;99.90;;;;;;4825707;29;20030;-89